createdAt,value
2023-03-08T00:00:14.259Z,46.58
2023-03-08T00:02:40.566Z,46.87
2023-03-08T00:05:07.401Z,46.24
2023-03-08T00:07:34.122Z,46.15
2023-03-08T00:10:00.706Z,46.21
2023-03-08T00:12:28.049Z,46.25
2023-03-08T00:14:54.546Z,46.56
2023-03-08T00:17:21.045Z,46.62
2023-03-08T00:19:47.521Z,46.34
2023-03-08T00:22:13.783Z,46.82
2023-03-08T00:24:40.119Z,46.79
2023-03-08T00:27:06.430Z,46.85
2023-03-08T00:29:32.709Z,45.95
2023-03-08T00:31:59.028Z,46.20
2023-03-08T00:34:25.544Z,46.45
2023-03-08T00:36:51.905Z,46.24
2023-03-08T00:39:18.363Z,46.44
2023-03-08T00:41:44.854Z,45.90
2023-03-08T00:44:11.144Z,46.49
2023-03-08T00:46:37.384Z,46.37
2023-03-08T00:49:05.006Z,46.87
2023-03-08T00:51:31.320Z,45.91
2023-03-08T00:53:57.786Z,45.93
2023-03-08T00:56:24.261Z,46.63
2023-03-08T00:58:50.774Z,46.86
2023-03-08T01:01:18.521Z,45.94
2023-03-08T01:03:44.919Z,46.31
2023-03-08T01:06:12.776Z,45.94
2023-03-08T01:08:41.945Z,45.80
2023-03-08T01:11:14.466Z,45.88
2023-03-08T01:13:40.962Z,45.92
2023-03-08T01:16:14.279Z,46.73
2023-03-08T01:18:40.650Z,46.48
2023-03-08T01:21:06.972Z,46.50
2023-03-08T01:23:33.308Z,46.65
2023-03-08T01:26:00.392Z,46.51
2023-03-08T01:28:26.845Z,45.84
2023-03-08T01:30:53.320Z,46.22
2023-03-08T01:33:21.147Z,46.36
2023-03-08T01:35:48.032Z,46.19
2023-03-08T01:38:15.753Z,46.49
2023-03-08T01:40:42.231Z,46.51
2023-03-08T01:43:32.062Z,46.29
2023-03-08T01:46:17.415Z,45.78
2023-03-08T01:48:47.597Z,45.82
2023-03-08T01:51:16.934Z,45.96
2023-03-08T01:53:44.226Z,45.94
2023-03-08T01:56:12.965Z,46.07
2023-03-08T01:58:42.019Z,45.98
2023-03-08T02:01:08.398Z,46.50
2023-03-08T02:03:34.750Z,46.52
2023-03-08T02:06:01.685Z,46.70
2023-03-08T02:08:27.951Z,46.55
2023-03-08T02:10:54.494Z,46.70
2023-03-08T02:13:21.493Z,46.00
2023-03-08T02:15:49.030Z,46.25
2023-03-08T02:18:15.326Z,46.60
2023-03-08T02:20:42.375Z,46.43
2023-03-08T02:23:19.470Z,46.85
2023-03-08T02:25:53.169Z,46.15
2023-03-08T02:28:24.317Z,46.58
2023-03-08T02:30:53.752Z,46.63
2023-03-08T02:33:20.281Z,46.27
2023-03-08T02:35:46.706Z,46.12
2023-03-08T02:38:13.908Z,46.68
2023-03-08T02:40:40.447Z,46.45
2023-03-08T02:43:06.848Z,46.37
2023-03-08T02:45:34.078Z,46.98
2023-03-08T02:48:01.328Z,46.41
2023-03-08T02:50:27.946Z,46.30
2023-03-08T02:52:54.487Z,46.95
2023-03-08T02:55:21.001Z,47.00
2023-03-08T02:57:47.301Z,46.82
2023-03-08T03:00:13.978Z,46.57
2023-03-08T03:02:40.623Z,46.16
2023-03-08T03:05:10.865Z,46.22
2023-03-08T03:07:38.836Z,46.56
2023-03-08T03:10:06.223Z,46.80
2023-03-08T03:12:33.209Z,46.83
2023-03-08T03:15:01.141Z,46.81
2023-03-08T03:17:27.642Z,47.00
2023-03-08T03:19:53.981Z,46.97
2023-03-08T03:22:20.313Z,46.92
2023-03-08T03:24:46.612Z,46.33
2023-03-08T03:27:12.834Z,46.80
2023-03-08T03:29:39.322Z,47.11
2023-03-08T03:32:05.790Z,47.18
2023-03-08T03:34:32.091Z,46.83
2023-03-08T03:36:58.578Z,46.91
2023-03-08T03:39:24.959Z,46.29
2023-03-08T03:41:51.331Z,46.30
2023-03-08T03:44:17.684Z,47.08
2023-03-08T03:46:44.202Z,47.15
2023-03-08T03:49:10.704Z,46.90
2023-03-08T03:51:37.985Z,46.50
2023-03-08T03:54:06.469Z,47.07
2023-03-08T03:56:33.832Z,46.22
2023-03-08T03:59:00.124Z,46.27
2023-03-08T04:01:30.702Z,46.51
2023-03-08T04:03:57.766Z,46.34
2023-03-08T04:06:25.596Z,46.33
2023-03-08T04:08:52.507Z,46.57
2023-03-08T04:11:20.980Z,46.67
2023-03-08T04:13:47.443Z,47.05
2023-03-08T04:16:18.930Z,46.37
2023-03-08T04:18:45.617Z,47.08
2023-03-08T04:21:11.992Z,47.13
2023-03-08T04:23:38.327Z,46.56
2023-03-08T04:26:05.226Z,46.46
2023-03-08T04:28:31.840Z,46.61
2023-03-08T04:30:58.129Z,46.13
2023-03-08T04:33:24.677Z,46.50
2023-03-08T04:35:51.513Z,46.23
2023-03-08T04:38:17.992Z,46.04
2023-03-08T04:41:02.269Z,46.94
2023-03-08T04:43:28.941Z,46.20
2023-03-08T04:45:55.236Z,46.20
2023-03-08T04:48:21.536Z,46.30
2023-03-08T04:50:55.207Z,47.03
2023-03-08T04:53:22.934Z,46.46
2023-03-08T04:55:49.576Z,46.64
2023-03-08T04:58:15.908Z,46.79
2023-03-08T05:00:42.486Z,46.89
2023-03-08T05:03:09.190Z,46.79
2023-03-08T05:05:35.938Z,46.83
2023-03-08T05:08:04.236Z,46.71
2023-03-08T05:10:33.477Z,46.18
2023-03-08T05:13:00.799Z,46.56
2023-03-08T05:15:27.299Z,46.22
2023-03-08T05:17:53.522Z,46.62
2023-03-08T05:20:19.894Z,46.80
2023-03-08T05:22:57.975Z,46.59
2023-03-08T05:25:25.500Z,46.52
2023-03-08T05:27:51.730Z,46.20
2023-03-08T05:30:18.165Z,46.47
2023-03-08T05:32:44.427Z,46.61
2023-03-08T05:35:10.681Z,46.23
2023-03-08T05:37:36.900Z,46.85
2023-03-08T05:40:05.895Z,46.63
2023-03-08T05:42:32.658Z,46.16
2023-03-08T05:45:00.400Z,46.25
2023-03-08T05:47:27.435Z,46.27
2023-03-08T05:49:53.717Z,47.00
2023-03-08T05:52:20.030Z,46.30
2023-03-08T05:54:47.854Z,46.12
2023-03-08T05:57:14.327Z,46.95
2023-03-08T05:59:40.616Z,46.08
2023-03-08T06:02:07.128Z,46.50
2023-03-08T06:04:33.603Z,46.42
2023-03-08T06:07:00.095Z,46.29
2023-03-08T06:09:26.386Z,46.95
2023-03-08T06:11:52.898Z,46.33
2023-03-08T06:14:19.136Z,47.05
2023-03-08T06:16:48.344Z,46.58
2023-03-08T06:19:15.233Z,46.23
2023-03-08T06:21:41.640Z,46.04
2023-03-08T06:24:08.047Z,46.40
2023-03-08T06:26:34.701Z,46.59
2023-03-08T06:29:01.040Z,46.16
2023-03-08T06:31:27.398Z,46.27
2023-03-08T06:33:53.671Z,46.33
2023-03-08T06:36:20.797Z,46.71
2023-03-08T06:38:48.022Z,46.84
2023-03-08T06:41:15.398Z,46.43
2023-03-08T06:43:41.940Z,45.94
2023-03-08T06:46:13.140Z,46.49
2023-03-08T06:48:39.484Z,46.30
2023-03-08T06:51:06.090Z,46.77
2023-03-08T06:53:33.016Z,46.09
2023-03-08T06:56:03.100Z,46.74
2023-03-08T06:58:29.350Z,46.81
2023-03-08T07:00:55.594Z,46.58
2023-03-08T07:03:22.950Z,46.23
2023-03-08T07:05:49.195Z,46.58
2023-03-08T07:08:15.436Z,46.08
2023-03-08T07:10:41.736Z,45.85
2023-03-08T07:13:08.241Z,46.24
2023-03-08T07:15:34.778Z,46.63
2023-03-08T07:18:01.017Z,46.45
2023-03-08T07:20:27.866Z,45.57
2023-03-08T07:22:54.259Z,46.16
2023-03-08T07:25:20.860Z,46.13
2023-03-08T07:27:47.607Z,46.51
2023-03-08T07:30:15.361Z,45.97
2023-03-08T07:32:44.945Z,46.33
2023-03-08T07:35:12.933Z,46.54
2023-03-08T07:37:39.510Z,46.54
2023-03-08T07:40:06.629Z,46.27
2023-03-08T07:42:32.885Z,46.45
2023-03-08T07:44:59.293Z,46.51
2023-03-08T07:47:25.565Z,46.42
2023-03-08T07:49:51.968Z,46.00
2023-03-08T07:52:18.303Z,46.09
2023-03-08T07:54:44.529Z,46.87
2023-03-08T07:57:14.371Z,46.84
2023-03-08T07:59:41.121Z,46.66
2023-03-08T08:02:10.810Z,46.64
2023-03-08T08:04:37.276Z,46.98
2023-03-08T08:07:05.123Z,46.14
2023-03-08T08:09:31.690Z,46.63
2023-03-08T08:11:58.166Z,46.89
2023-03-08T08:14:24.519Z,46.47
2023-03-08T08:16:51.827Z,46.38
2023-03-08T08:19:19.118Z,46.71
2023-03-08T08:21:46.403Z,46.22
2023-03-08T08:24:12.722Z,46.70
2023-03-08T08:26:39.044Z,46.75
2023-03-08T08:29:05.470Z,46.88
2023-03-08T08:31:32.101Z,46.63
2023-03-08T08:33:59.326Z,46.15
2023-03-08T08:36:25.865Z,46.70
2023-03-08T08:38:52.323Z,46.83
2023-03-08T08:41:19.871Z,46.92
2023-03-08T08:43:46.713Z,46.74
2023-03-08T08:46:13.742Z,46.90
2023-03-08T08:48:40.259Z,46.18
2023-03-08T08:51:07.519Z,46.69
2023-03-08T08:53:34.337Z,46.34
2023-03-08T08:56:20.241Z,46.25
2023-03-08T08:58:52.030Z,46.59
2023-03-08T09:01:20.051Z,46.75
2023-03-08T09:03:46.903Z,46.83
2023-03-08T09:06:13.913Z,46.87
2023-03-08T09:08:40.298Z,46.16
2023-03-08T09:11:07.610Z,46.22
2023-03-08T09:13:34.471Z,46.62
2023-03-08T09:16:01.015Z,46.79
2023-03-08T09:18:27.516Z,46.31
2023-03-08T09:20:53.903Z,45.92
2023-03-08T09:23:20.355Z,45.93
2023-03-08T09:25:54.481Z,46.58
2023-03-08T09:28:20.741Z,46.16
2023-03-08T09:30:47.003Z,46.33
2023-03-08T09:33:13.281Z,46.16
2023-03-08T09:35:39.807Z,46.52
2023-03-08T09:38:06.150Z,46.40
2023-03-08T09:40:37.544Z,45.79
2023-03-08T09:43:05.217Z,45.95
2023-03-08T09:45:31.595Z,46.34
2023-03-08T09:48:06.765Z,46.23
2023-03-08T09:50:44.052Z,46.74
2023-03-08T09:53:10.256Z,46.44
2023-03-08T09:55:38.406Z,46.12
2023-03-08T09:58:23.046Z,46.32
2023-03-08T10:00:49.575Z,46.28
2023-03-08T10:03:36.930Z,46.11
2023-03-08T10:06:32.678Z,46.63
2023-03-08T10:09:01.755Z,45.86
2023-03-08T10:11:44.234Z,46.87
2023-03-08T10:14:22.832Z,46.85
2023-03-08T10:16:52.564Z,47.00
2023-03-08T10:19:26.717Z,46.60
2023-03-08T10:21:53.980Z,46.64
2023-03-08T10:24:27.297Z,47.03
2023-03-08T10:27:12.425Z,46.94
2023-03-08T10:29:38.658Z,46.74
2023-03-08T10:32:05.113Z,46.60
2023-03-08T10:34:32.544Z,47.12
2023-03-08T10:37:01.038Z,47.12
2023-03-08T10:39:27.368Z,47.03
2023-03-08T10:41:56.158Z,46.98
2023-03-08T10:44:34.044Z,46.74
2023-03-08T10:47:01.932Z,46.84
2023-03-08T10:49:28.223Z,47.32
2023-03-08T10:52:01.087Z,46.83
2023-03-08T10:54:28.296Z,46.74
2023-03-08T10:56:59.169Z,46.88
2023-03-08T10:59:34.573Z,47.39
2023-03-08T11:02:12.810Z,46.74
2023-03-08T11:04:49.868Z,47.06
2023-03-08T11:07:24.244Z,46.90
2023-03-08T11:09:52.685Z,47.14
2023-03-08T11:12:26.062Z,46.76
2023-03-08T11:14:52.705Z,46.79
2023-03-08T11:17:37.549Z,47.27
2023-03-08T11:20:10.571Z,46.79
2023-03-08T11:22:44.993Z,46.81
2023-03-08T11:25:19.957Z,46.63
2023-03-08T11:27:49.387Z,46.78
2023-03-08T11:30:18.589Z,46.84
2023-03-08T11:33:04.218Z,46.72
2023-03-08T11:35:45.878Z,47.53
2023-03-08T11:38:17.780Z,47.35
2023-03-08T11:40:46.828Z,47.27
2023-03-08T11:43:21.349Z,47.93
2023-03-08T11:46:01.870Z,47.57
2023-03-08T11:48:47.103Z,47.22
2023-03-08T11:51:13.436Z,47.03
2023-03-08T11:53:48.744Z,46.87
2023-03-08T11:56:38.565Z,46.94
2023-03-08T11:59:10.892Z,46.72
2023-03-08T12:02:03.699Z,47.13
2023-03-08T12:04:43.655Z,46.46
2023-03-08T12:07:18.015Z,47.28
2023-03-08T12:10:02.079Z,46.81
2023-03-08T12:12:31.481Z,47.01
2023-03-08T12:15:07.655Z,46.37
2023-03-08T12:17:40.593Z,47.34
2023-03-08T12:20:12.971Z,46.62
2023-03-08T12:23:13.367Z,46.83
2023-03-08T12:25:41.573Z,46.59
2023-03-08T12:28:18.158Z,46.63
2023-03-08T12:30:53.535Z,47.03
2023-03-08T12:33:20.272Z,46.67
2023-03-08T12:35:51.615Z,47.30
2023-03-08T12:38:18.049Z,46.88
2023-03-08T12:40:47.047Z,46.93
2023-03-08T12:43:19.480Z,47.07
2023-03-08T12:45:48.557Z,46.90
2023-03-08T12:48:18.294Z,47.37
2023-03-08T12:50:58.051Z,47.90
2023-03-08T12:53:39.056Z,47.26
2023-03-08T12:56:07.122Z,47.17
2023-03-08T12:58:35.038Z,47.13
2023-03-08T13:01:03.168Z,47.67
2023-03-08T13:03:41.308Z,47.37
2023-03-08T13:06:16.722Z,48.01
2023-03-08T13:08:49.032Z,47.37
2023-03-08T13:11:16.954Z,47.19
2023-03-08T13:13:56.191Z,47.59
2023-03-08T13:16:32.218Z,48.02
2023-03-08T13:19:06.582Z,47.88
2023-03-08T13:21:38.523Z,47.87
2023-03-08T13:24:13.826Z,47.36
2023-03-08T13:26:57.919Z,47.76
2023-03-08T13:29:29.390Z,47.90
2023-03-08T13:31:55.927Z,47.85
2023-03-08T13:34:27.092Z,48.17
2023-03-08T13:36:55.707Z,48.00
2023-03-08T13:39:23.484Z,47.60
2023-03-08T13:41:49.845Z,47.83
2023-03-08T13:44:23.908Z,48.04
2023-03-08T13:46:52.735Z,47.44
2023-03-08T13:49:24.113Z,47.46
2023-03-08T13:51:53.920Z,47.32
2023-03-08T13:54:29.162Z,47.48
2023-03-08T13:56:56.600Z,47.22
2023-03-08T13:59:25.287Z,48.09
2023-03-08T14:01:52.849Z,48.12
2023-03-08T14:04:26.748Z,47.50
2023-03-08T14:06:54.393Z,47.14
2023-03-08T14:09:21.300Z,47.61
2023-03-08T14:11:55.474Z,47.44
2023-03-08T14:14:40.747Z,47.69
2023-03-08T14:17:07.545Z,48.02
2023-03-08T14:19:35.322Z,48.16
2023-03-08T14:22:03.748Z,47.45
2023-03-08T14:24:34.436Z,47.38
2023-03-08T14:27:06.676Z,48.07
2023-03-08T14:29:34.536Z,47.24
2023-03-08T14:32:06.187Z,47.72
2023-03-08T14:34:35.954Z,47.30
2023-03-08T14:37:25.602Z,48.10
2023-03-08T14:39:53.504Z,47.30
2023-03-08T14:42:52.235Z,47.82
2023-03-08T14:45:21.725Z,47.53
2023-03-08T14:47:49.173Z,47.72
2023-03-08T14:50:23.476Z,48.26
2023-03-08T14:52:51.273Z,47.47
2023-03-08T14:55:35.305Z,47.57
2023-03-08T14:58:03.206Z,47.75
2023-03-08T15:00:30.141Z,47.53
2023-03-08T15:03:00.207Z,47.49
2023-03-08T15:05:29.531Z,47.39
2023-03-08T15:07:57.394Z,48.01
2023-03-08T15:10:23.651Z,47.58
2023-03-08T15:12:49.899Z,48.13
2023-03-08T15:15:16.193Z,47.63
2023-03-08T15:17:42.602Z,47.61
2023-03-08T15:20:10.926Z,47.73
2023-03-08T15:22:42.352Z,47.68
2023-03-08T15:25:19.385Z,47.55
2023-03-08T15:27:48.212Z,48.13
2023-03-08T15:30:19.712Z,47.47
2023-03-08T15:32:46.630Z,47.64
2023-03-08T15:35:13.371Z,47.76
2023-03-08T15:37:39.851Z,47.75
2023-03-08T15:40:08.373Z,48.04
2023-03-08T15:42:35.025Z,48.01
2023-03-08T15:45:01.569Z,47.61
2023-03-08T15:47:27.828Z,47.65
2023-03-08T15:49:55.258Z,48.14
2023-03-08T15:52:23.338Z,47.40
2023-03-08T15:54:51.173Z,48.18
2023-03-08T15:57:17.742Z,47.39
2023-03-08T15:59:44.228Z,47.41
2023-03-08T16:02:15.275Z,47.70
2023-03-08T16:04:45.807Z,48.18
2023-03-08T16:07:13.722Z,47.58
2023-03-08T16:09:47.125Z,48.06
2023-03-08T16:12:14.634Z,48.04
2023-03-08T16:14:45.853Z,48.17
2023-03-08T16:17:12.219Z,47.92
2023-03-08T16:19:38.459Z,48.12
2023-03-08T16:22:05.059Z,47.54
2023-03-08T16:24:31.294Z,47.65
2023-03-08T16:26:59.496Z,47.38
2023-03-08T16:29:26.893Z,47.65
2023-03-08T16:31:53.179Z,48.27
2023-03-08T16:34:21.979Z,48.17
2023-03-08T16:36:48.259Z,48.19
2023-03-08T16:39:14.968Z,47.81
2023-03-08T16:41:41.362Z,47.75
2023-03-08T16:44:19.568Z,47.82
2023-03-08T16:46:48.255Z,47.72
2023-03-08T16:49:15.369Z,47.46
2023-03-08T16:51:42.867Z,47.46
2023-03-08T16:54:11.014Z,47.77
2023-03-08T16:56:40.406Z,48.11
2023-03-08T16:59:06.713Z,48.01
2023-03-08T17:01:34.977Z,47.69
2023-03-08T17:04:01.327Z,47.69
2023-03-08T17:06:29.531Z,47.80
2023-03-08T17:08:56.729Z,47.85
2023-03-08T17:11:27.375Z,48.10
2023-03-08T17:13:58.208Z,48.07
2023-03-08T17:16:25.651Z,48.56
2023-03-08T17:18:52.618Z,47.90
2023-03-08T17:21:20.844Z,47.63
2023-03-08T17:23:47.875Z,47.93
2023-03-08T17:26:14.681Z,48.16
2023-03-08T17:28:41.664Z,48.17
2023-03-08T17:31:08.874Z,47.78
2023-03-08T17:33:35.744Z,48.47
2023-03-08T17:36:02.204Z,47.96
2023-03-08T17:38:28.875Z,48.29
2023-03-08T17:40:55.357Z,48.33
2023-03-08T17:43:21.691Z,48.43
2023-03-08T17:45:58.384Z,47.67
2023-03-08T17:48:27.181Z,47.77
2023-03-08T17:50:54.158Z,48.29
2023-03-08T17:53:22.065Z,48.45
2023-03-08T17:55:50.594Z,48.02
2023-03-08T17:58:16.886Z,48.38
2023-03-08T18:00:43.794Z,48.07
2023-03-08T18:03:12.716Z,48.03
2023-03-08T18:05:47.016Z,47.71
2023-03-08T18:08:13.306Z,48.53
2023-03-08T18:10:39.616Z,47.94
2023-03-08T18:13:07.322Z,48.01
2023-03-08T18:15:33.972Z,47.71
2023-03-08T18:18:00.352Z,47.93
2023-03-08T18:20:26.652Z,47.90
2023-03-08T18:22:52.900Z,47.87
2023-03-08T18:25:20.416Z,48.26
2023-03-08T18:27:49.864Z,48.67
2023-03-08T18:30:16.431Z,48.00
2023-03-08T18:32:42.774Z,47.93
2023-03-08T18:35:09.399Z,47.77
2023-03-08T18:37:35.964Z,48.22
2023-03-08T18:40:02.473Z,48.33
2023-03-08T18:42:29.520Z,48.54
2023-03-08T18:44:56.939Z,48.05
2023-03-08T18:47:23.637Z,47.91
2023-03-08T18:49:50.123Z,48.46
2023-03-08T18:52:18.637Z,48.12
2023-03-08T18:54:44.925Z,48.05
2023-03-08T18:57:11.374Z,47.79
2023-03-08T18:59:37.665Z,48.57
2023-03-08T19:02:04.218Z,47.92
2023-03-08T19:04:30.699Z,48.34
2023-03-08T19:06:57.995Z,48.32
2023-03-08T19:09:24.328Z,47.92
2023-03-08T19:11:50.796Z,48.37
2023-03-08T19:14:17.428Z,48.33
2023-03-08T19:16:44.084Z,48.32
2023-03-08T19:19:15.255Z,48.14
2023-03-08T19:21:43.387Z,48.80
2023-03-08T19:24:13.429Z,48.04
2023-03-08T19:26:41.325Z,47.99
2023-03-08T19:29:12.799Z,48.27
2023-03-08T19:31:41.081Z,48.81
2023-03-08T19:34:08.756Z,48.55
2023-03-08T19:36:35.584Z,48.31
2023-03-08T19:39:02.716Z,48.21
2023-03-08T19:41:29.038Z,48.54
2023-03-08T19:43:56.337Z,48.83
2023-03-08T19:46:22.766Z,48.36
2023-03-08T19:48:49.292Z,48.30
2023-03-08T19:51:18.980Z,48.33
2023-03-08T19:53:45.195Z,48.32
2023-03-08T19:56:15.979Z,48.46
2023-03-08T19:58:42.445Z,48.20
2023-03-08T20:01:09.593Z,48.47
2023-03-08T20:03:36.130Z,48.05
2023-03-08T20:06:04.316Z,48.99
2023-03-08T20:08:31.014Z,48.23
2023-03-08T20:10:57.240Z,48.38
2023-03-08T20:13:23.602Z,48.42
2023-03-08T20:15:49.869Z,48.11
2023-03-08T20:18:16.406Z,48.84
2023-03-08T20:20:44.482Z,48.27
2023-03-08T20:23:10.792Z,48.20
2023-03-08T20:25:38.164Z,48.40
2023-03-08T20:28:04.823Z,49.13
2023-03-08T20:30:31.232Z,48.86
2023-03-08T20:32:57.624Z,48.21
2023-03-08T20:35:25.314Z,47.93
2023-03-08T20:37:51.700Z,48.13
2023-03-08T20:40:20.740Z,48.12
2023-03-08T20:42:47.296Z,48.74
2023-03-08T20:45:15.012Z,48.67
2023-03-08T20:47:41.523Z,48.39
2023-03-08T20:50:08.239Z,48.99
2023-03-08T20:52:35.648Z,48.64
2023-03-08T20:55:02.597Z,48.91
2023-03-08T20:57:28.828Z,48.44
2023-03-08T20:59:55.501Z,48.89
2023-03-08T21:02:22.019Z,48.27
2023-03-08T21:04:48.495Z,48.78
2023-03-08T21:07:14.882Z,48.20
2023-03-08T21:09:43.141Z,48.87
2023-03-08T21:12:09.863Z,48.22
2023-03-08T21:14:36.694Z,48.25
2023-03-08T21:17:05.222Z,48.86
2023-03-08T21:19:31.509Z,48.81
2023-03-08T21:21:57.870Z,48.24
2023-03-08T21:24:24.259Z,48.82
2023-03-08T21:26:51.889Z,49.09
2023-03-08T21:29:18.925Z,48.52
2023-03-08T21:31:48.460Z,49.00
2023-03-08T21:34:16.482Z,48.60
2023-03-08T21:36:43.090Z,48.52
2023-03-08T21:39:09.648Z,49.07
2023-03-08T21:41:38.099Z,48.59
2023-03-08T21:44:06.018Z,48.52
2023-03-08T21:46:33.753Z,48.75
2023-03-08T21:49:00.160Z,48.90
2023-03-08T21:51:26.671Z,48.90
2023-03-08T21:53:54.372Z,49.08
2023-03-08T21:56:20.612Z,49.14
2023-03-08T21:58:47.103Z,48.99
2023-03-08T22:01:17.494Z,49.13
2023-03-08T22:03:43.742Z,48.69
2023-03-08T22:06:10.149Z,49.11
2023-03-08T22:08:36.431Z,49.17
2023-03-08T22:11:02.725Z,48.71
2023-03-08T22:13:29.046Z,49.17
2023-03-08T22:15:55.684Z,49.25
2023-03-08T22:18:21.972Z,48.58
2023-03-08T22:20:48.719Z,49.30
2023-03-08T22:23:17.572Z,49.19
2023-03-08T22:25:43.880Z,49.36
2023-03-08T22:28:10.391Z,48.94
2023-03-08T22:30:39.388Z,49.32
2023-03-08T22:33:07.889Z,48.78
2023-03-08T22:35:34.444Z,48.78
2023-03-08T22:38:01.195Z,49.47
2023-03-08T22:40:27.464Z,49.42
2023-03-08T22:42:54.001Z,48.64
2023-03-08T22:45:20.294Z,48.79
2023-03-08T22:47:46.775Z,48.51
2023-03-08T22:50:14.588Z,49.37
2023-03-08T22:52:40.833Z,49.30
2023-03-08T22:55:07.425Z,49.46
2023-03-08T22:57:35.774Z,49.04
2023-03-08T23:00:02.365Z,49.33
2023-03-08T23:02:30.314Z,49.41
2023-03-08T23:04:57.908Z,48.98
2023-03-08T23:07:24.181Z,49.19
2023-03-08T23:09:51.054Z,48.59
2023-03-08T23:12:17.592Z,49.52
2023-03-08T23:14:45.573Z,49.40
2023-03-08T23:17:11.857Z,49.42
2023-03-08T23:19:38.304Z,49.39
2023-03-08T23:22:04.607Z,49.29
2023-03-08T23:24:30.856Z,49.44
2023-03-08T23:27:02.801Z,49.28
2023-03-08T23:29:29.174Z,49.69
2023-03-08T23:31:55.861Z,49.60
2023-03-08T23:34:22.519Z,49.00
2023-03-08T23:36:49.421Z,49.56
2023-03-08T23:39:15.926Z,49.68
2023-03-08T23:41:42.417Z,49.60
2023-03-08T23:44:10.056Z,49.54
2023-03-08T23:46:36.366Z,49.79
2023-03-08T23:49:04.328Z,49.79
2023-03-08T23:51:32.152Z,49.85
2023-03-08T23:53:59.450Z,49.93
2023-03-08T23:56:37.691Z,49.83
2023-03-08T23:59:09.958Z,49.78
